Aviation Digital Data Service (ADDS)

Output produced by METARs form (2355 UTC 16 October 2017)
found at http://www.aviationweather.gov/adds/metars/
 
KEWR 162320Z 1700/1806 33015G21KT P6SM FEW050 BKN200 
     FM170100 33012KT P6SM SKC 
     FM170400 34008KT P6SM SKC 
     FM171700 29006KT P6SM SKC 
     FM172000 23006KT P6SM SKC 
     FM180200 25005KT P6SM SKC